Time;durP1;ratioP1;P1;durP2;ratioP2;P2;SDS_P1;SDS_P2;PMS_P1;PMS_P2;Temp;Humidity;BMP_temperature;BMP_pressure;BME280_temperature;BME280_humidity;BME280_pressure;Samples;Min_cycle;Max_cycle;Signal;HPM_P1;HPM_P2
2022/01/21 00:00:10;;;;;;;14.05;8.48;;;;;;;;;;5073757;28;20037;-37
2022/01/21 00:02:35;;;;;;;10.25;6.10;;;;;;;;;;5074064;28;20032;-37
2022/01/21 00:05:01;;;;;;;14.52;7.95;;;;;;;;;;5073797;28;20032;-38
2022/01/21 00:07:26;;;;;;;13.00;6.97;;;;;;;;;;5073646;28;20032;-38
2022/01/21 00:09:52;;;;;;;12.73;6.68;;;;;;;;;;5073833;28;20097;-38
2022/01/21 00:12:17;;;;;;;13.45;6.95;;;;;;;;;;5073699;28;20017;-38
2022/01/21 00:14:44;;;;;;;13.82;6.57;;;;;;;;;;5089320;28;20032;-38
2022/01/21 00:17:10;;;;;;;14.10;6.65;;;;;;;;;;5073603;28;20032;-37
2022/01/21 00:19:39;;;;;;;12.43;6.60;;;;;;;;;;5073401;28;20040;-38
2022/01/21 00:30:20;;;;;;;15.75;7.03;;;;;;;;;;5073360;28;20035;-37
2022/01/21 00:32:46;;;;;;;17.85;6.80;;;;;;;;;;5072044;28;20074;-38
2022/01/21 00:35:12;;;;;;;14.68;6.38;;;;;;;;;;5073548;28;20036;-38
2022/01/21 00:37:38;;;;;;;12.68;6.85;;;;;;;;;;5073180;28;20021;-38
2022/01/21 00:40:05;;;;;;;12.82;6.88;;;;;;;;;;5071821;28;20044;-38
2022/01/21 00:42:48;;;;;;;16.13;6.75;;;;;;;;;;5072974;28;20053;-38
2022/01/21 00:45:16;;;;;;;14.38;7.40;;;;;;;;;;5072165;28;20390;-38
2022/01/21 00:47:42;;;;;;;12.13;6.85;;;;;;;;;;5071773;28;20074;-38
2022/01/21 00:50:08;;;;;;;13.50;6.57;;;;;;;;;;5072941;28;20123;-37
2022/01/21 00:52:35;;;;;;;11.98;6.22;;;;;;;;;;5073013;28;20115;-38
2022/01/21 00:55:01;;;;;;;16.30;6.72;;;;;;;;;;5071524;28;20028;-38
2022/01/21 00:57:26;;;;;;;14.25;6.43;;;;;;;;;;5072684;28;20482;-38
2022/01/21 00:59:52;;;;;;;9.10;5.43;;;;;;;;;;5072742;28;20040;-38
2022/01/21 01:02:17;;;;;;;13.52;7.90;;;;;;;;;;5071325;28;20027;-37
2022/01/21 01:04:43;;;;;;;13.98;7.10;;;;;;;;;;5072701;28;20530;-38
2022/01/21 01:07:08;;;;;;;16.17;6.82;;;;;;;;;;5070349;28;20024;-37
2022/01/21 01:09:34;;;;;;;13.55;6.55;;;;;;;;;;5072396;28;20107;-37
2022/01/21 01:19:58;;;;;;;11.77;6.25;;;;;;;;;;5072411;28;20072;-37
2022/01/21 01:22:33;;;;;;;16.25;5.93;;;;;;;;;;5070927;28;20115;-37
2022/01/21 01:27:42;;;;;;;5.97;4.55;;;;;;;;;;5087925;28;20032;-38
2022/01/21 01:30:13;;;;;;;12.55;6.78;;;;;;;;;;5070909;28;20016;-38
2022/01/21 01:32:39;;;;;;;11.70;6.47;;;;;;;;;;5071902;28;20494;-38
2022/01/21 01:35:06;;;;;;;12.38;5.57;;;;;;;;;;5072331;28;20119;-38
2022/01/21 01:40:19;;;;;;;9.52;5.78;;;;;;;;;;5072003;28;20068;-38
2022/01/21 01:50:58;;;;;;;9.88;5.25;;;;;;;;;;5072064;28;20518;-37
2022/01/21 01:53:29;;;;;;;12.82;5.45;;;;;;;;;;5070313;28;20025;-37
2022/01/21 01:55:55;;;;;;;12.13;5.88;;;;;;;;;;5071751;28;20044;-37
2022/01/21 01:58:21;;;;;;;9.43;5.63;;;;;;;;;;5071766;28;20031;-38
2022/01/21 02:00:47;;;;;;;16.55;6.53;;;;;;;;;;5071607;28;20044;-38
2022/01/21 02:03:16;;;;;;;12.88;6.38;;;;;;;;;;5071437;28;20031;-38
2022/01/21 02:05:42;;;;;;;12.88;4.95;;;;;;;;;;5071567;28;20032;-38
2022/01/21 02:08:10;;;;;;;12.93;6.80;;;;;;;;;;5071497;28;20047;-37
2022/01/21 02:10:36;;;;;;;10.93;6.22;;;;;;;;;;5070136;28;20111;-37
2022/01/21 02:13:17;;;;;;;9.50;5.32;;;;;;;;;;5071487;28;20032;-38
2022/01/21 02:15:44;;;;;;;17.77;6.13;;;;;;;;;;5071560;28;20028;-38
2022/01/21 02:23:38;;;;;;;9.55;5.60;;;;;;;;;;5071275;28;20028;-40
2022/01/21 02:26:03;;;;;;;10.30;5.75;;;;;;;;;;5071432;28;20382;-38
2022/01/21 02:28:29;;;;;;;9.02;5.00;;;;;;;;;;5086763;28;20029;-38
2022/01/21 02:30:56;;;;;;;8.30;4.93;;;;;;;;;;5070012;28;20021;-37
2022/01/21 02:33:23;;;;;;;9.35;4.72;;;;;;;;;;5069936;28;20040;-38
2022/01/21 02:35:49;;;;;;;8.50;5.70;;;;;;;;;;5071452;28;20091;-38
2022/01/21 02:38:15;;;;;;;5.78;4.18;;;;;;;;;;5071555;28;20123;-38
2022/01/21 02:40:40;;;;;;;10.57;5.90;;;;;;;;;;5071172;28;20427;-38
2022/01/21 02:43:06;;;;;;;12.35;5.50;;;;;;;;;;5069823;28;20040;-38
2022/01/21 02:45:31;;;;;;;10.52;6.10;;;;;;;;;;5069842;28;20033;-37
2022/01/21 02:47:57;;;;;;;11.02;6.60;;;;;;;;;;5086582;28;20024;-38
2022/01/21 02:50:23;;;;;;;13.20;4.35;;;;;;;;;;5069778;28;20021;-38
2022/01/21 02:53:23;;;;;;;7.18;4.05;;;;;;;;;;5069843;28;20456;-38
2022/01/21 02:55:42;;;;;;;8.25;4.88;;;;;;;;;;5071159;28;20025;-38
2022/01/21 02:58:08;;;;;;;10.52;4.72;;;;;;;;;;5071170;28;20434;-37
2022/01/21 03:00:34;;;;;;;11.38;6.18;;;;;;;;;;5069622;28;20037;-38
2022/01/21 03:03:02;;;;;;;11.43;5.45;;;;;;;;;;5071208;28;20055;-38
2022/01/21 03:05:28;;;;;;;8.63;5.07;;;;;;;;;;5070888;28;20121;-37
2022/01/21 03:07:53;;;;;;;8.98;4.78;;;;;;;;;;5069706;28;20712;-38
2022/01/21 03:10:19;;;;;;;14.77;6.95;;;;;;;;;;5069379;28;20043;-37
2022/01/21 03:12:44;;;;;;;11.05;5.47;;;;;;;;;;5069617;28;20086;-37
2022/01/21 03:15:10;;;;;;;13.18;6.05;;;;;;;;;;5069622;28;20043;-37
2022/01/21 03:17:35;;;;;;;8.95;5.45;;;;;;;;;;5070980;28;20020;-38
2022/01/21 03:20:02;;;;;;;8.43;4.85;;;;;;;;;;5071112;28;20047;-38
2022/01/21 03:22:28;;;;;;;12.25;5.03;;;;;;;;;;5069422;28;20039;-37
2022/01/21 03:24:54;;;;;;;8.60;5.32;;;;;;;;;;5086236;28;20188;-38
2022/01/21 03:27:19;;;;;;;12.18;5.63;;;;;;;;;;5070637;28;20013;-38
2022/01/21 03:29:45;;;;;;;12.73;5.85;;;;;;;;;;5070799;28;20052;-38
2022/01/21 03:32:11;;;;;;;10.02;5.78;;;;;;;;;;5072439;28;20019;-38
2022/01/21 03:34:38;;;;;;;8.68;4.05;;;;;;;;;;5089811;28;20482;-38
2022/01/21 03:37:04;;;;;;;7.00;4.13;;;;;;;;;;5073086;28;20086;-38
2022/01/21 03:39:31;;;;;;;8.95;5.28;;;;;;;;;;5072809;28;20072;-38
2022/01/21 03:41:58;;;;;;;12.18;5.20;;;;;;;;;;5072837;28;20056;-37
2022/01/21 03:44:24;;;;;;;14.57;6.15;;;;;;;;;;5089780;28;20025;-38
2022/01/21 03:46:49;;;;;;;17.38;5.50;;;;;;;;;;5072758;28;20029;-38
2022/01/21 03:49:16;;;;;;;15.13;6.78;;;;;;;;;;5072826;28;20036;-38
2022/01/21 03:51:42;;;;;;;5.22;4.50;;;;;;;;;;5072731;28;20437;-38
2022/01/21 03:54:08;;;;;;;9.40;5.78;;;;;;;;;;5073926;28;20112;-37
2022/01/21 03:56:35;;;;;;;11.65;5.90;;;;;;;;;;5072687;28;20553;-38
2022/01/21 03:59:00;;;;;;;12.05;7.03;;;;;;;;;;5072604;28;20433;-37
2022/01/21 04:01:28;;;;;;;12.73;6.90;;;;;;;;;;5072414;28;20027;-38
2022/01/21 04:03:53;;;;;;;9.38;5.53;;;;;;;;;;5089536;28;20032;-38
2022/01/21 04:06:20;;;;;;;12.20;6.57;;;;;;;;;;5072447;28;20027;-38
2022/01/21 04:08:45;;;;;;;11.25;5.63;;;;;;;;;;5073810;28;20707;-37
2022/01/21 04:11:11;;;;;;;13.95;6.10;;;;;;;;;;5072521;28;20020;-38
2022/01/21 04:13:43;;;;;;;10.88;5.35;;;;;;;;;;5089156;28;20028;-38
2022/01/21 04:16:12;;;;;;;9.23;5.15;;;;;;;;;;5072299;28;20035;-38
2022/01/21 04:18:38;;;;;;;10.00;5.20;;;;;;;;;;5072312;28;20035;-38
2022/01/21 04:21:07;;;;;;;14.35;5.10;;;;;;;;;;5072341;28;20451;-37
2022/01/21 04:23:33;;;;;;;14.45;5.85;;;;;;;;;;5073265;28;20047;-38
2022/01/21 04:25:59;;;;;;;8.82;5.97;;;;;;;;;;5072255;28;20123;-38
2022/01/21 04:28:24;;;;;;;8.93;5.00;;;;;;;;;;5073269;28;20104;-38
2022/01/21 04:30:50;;;;;;;10.85;5.43;;;;;;;;;;5073335;28;20035;-38
2022/01/21 04:33:20;;;;;;;12.20;5.53;;;;;;;;;;5072004;28;20475;-37
2022/01/21 04:35:55;;;;;;;10.13;5.32;;;;;;;;;;5072039;28;20040;-38
2022/01/21 04:38:23;;;;;;;13.35;5.78;;;;;;;;;;5088877;28;20017;-37
2022/01/21 04:41:00;;;;;;;8.60;4.70;;;;;;;;;;5071569;28;20033;-38
2022/01/21 04:48:55;;;;;;;9.32;4.88;;;;;;;;;;5088653;28;20029;-37
2022/01/21 04:51:27;;;;;;;9.75;5.28;;;;;;;;;;5071593;28;20020;-37
2022/01/21 04:53:53;;;;;;;10.13;5.07;;;;;;;;;;5071656;28;20021;-38
2022/01/21 04:56:24;;;;;;;14.68;6.32;;;;;;;;;;5071503;28;20025;-38
2022/01/21 04:58:53;;;;;;;7.40;5.43;;;;;;;;;;5071395;28;20032;-37
2022/01/21 05:01:19;;;;;;;9.43;5.47;;;;;;;;;;5071725;28;20057;-38
2022/01/21 05:03:46;;;;;;;7.45;4.03;;;;;;;;;;5071417;28;20488;-38
2022/01/21 05:06:12;;;;;;;8.35;5.30;;;;;;;;;;5071324;28;20048;-39
2022/01/21 05:11:09;;;;;;;11.25;5.18;;;;;;;;;;5088104;28;20025;-37
2022/01/21 05:13:41;;;;;;;14.68;5.35;;;;;;;;;;5071076;28;20036;-38
2022/01/21 05:16:18;;;;;;;8.77;5.28;;;;;;;;;;5088174;28;20135;-38
2022/01/21 05:18:44;;;;;;;10.15;4.32;;;;;;;;;;5070974;28;20036;-38
2022/01/21 05:21:35;;;;;;;10.23;5.70;;;;;;;;;;5069995;28;20111;-38
2022/01/21 05:24:06;;;;;;;8.35;4.95;;;;;;;;;;5071112;28;20470;-37
2022/01/21 05:26:37;;;;;;;11.15;5.68;;;;;;;;;;5087784;28;20052;-38
2022/01/21 05:29:04;;;;;;;12.10;5.20;;;;;;;;;;5087917;28;20434;-38
2022/01/21 05:31:52;;;;;;;8.20;5.90;;;;;;;;;;5070924;28;20017;-37
2022/01/21 05:34:33;;;;;;;10.88;5.72;;;;;;;;;;5070681;28;20028;-39
2022/01/21 05:37:21;;;;;;;8.57;5.22;;;;;;;;;;5070807;28;20027;-38
2022/01/21 05:40:06;;;;;;;6.50;4.20;;;;;;;;;;5087613;28;20063;-37
2022/01/21 05:42:51;;;;;;;7.35;4.80;;;;;;;;;;5085171;28;20461;-37
2022/01/21 05:48:32;;;;;;;8.88;4.50;;;;;;;;;;5071481;28;20076;-38
2022/01/21 05:51:24;;;;;;;10.88;4.15;;;;;;;;;;5071961;28;20037;-38
2022/01/21 05:54:24;;;;;;;8.45;4.68;;;;;;;;;;5016325;28;20048;-38
2022/01/21 05:57:13;;;;;;;7.78;4.35;;;;;;;;;;5064219;28;20056;-38
2022/01/21 05:59:41;;;;;;;10.40;4.32;;;;;;;;;;5071856;28;20036;-38
2022/01/21 06:02:07;;;;;;;8.38;5.60;;;;;;;;;;5071865;28;20070;-38
2022/01/21 06:04:33;;;;;;;11.10;4.45;;;;;;;;;;5070176;28;20024;-37
2022/01/21 06:07:00;;;;;;;11.07;4.75;;;;;;;;;;5070309;28;20036;-38
2022/01/21 06:09:25;;;;;;;10.48;5.65;;;;;;;;;;5071777;28;20033;-37
2022/01/21 06:11:51;;;;;;;13.45;4.95;;;;;;;;;;5071595;28;20467;-38
2022/01/21 06:14:16;;;;;;;8.90;5.00;;;;;;;;;;5071468;28;20063;-38
2022/01/21 06:16:42;;;;;;;9.52;4.43;;;;;;;;;;5070091;28;20470;-37
2022/01/21 06:19:07;;;;;;;10.02;6.10;;;;;;;;;;5071741;28;20490;-38
2022/01/21 06:21:33;;;;;;;8.63;3.95;;;;;;;;;;5071560;28;20039;-38
2022/01/21 06:23:58;;;;;;;8.77;4.47;;;;;;;;;;5071357;28;20016;-37
2022/01/21 06:26:24;;;;;;;7.85;4.60;;;;;;;;;;5071264;28;20021;-37
2022/01/21 06:28:49;;;;;;;8.98;4.45;;;;;;;;;;5071618;28;20021;-38
2022/01/21 06:31:15;;;;;;;9.73;5.78;;;;;;;;;;5071308;28;20025;-38
2022/01/21 06:33:40;;;;;;;12.90;6.55;;;;;;;;;;5071094;28;20028;-38
2022/01/21 06:36:06;;;;;;;7.32;4.75;;;;;;;;;;5071541;28;20029;-37
2022/01/21 06:38:31;;;;;;;12.35;4.85;;;;;;;;;;5071073;28;20028;-37
2022/01/21 06:40:57;;;;;;;7.93;3.72;;;;;;;;;;5071024;28;20028;-37
2022/01/21 06:43:22;;;;;;;9.60;4.72;;;;;;;;;;5071170;28;20082;-38
2022/01/21 06:45:48;;;;;;;9.52;4.35;;;;;;;;;;5071320;28;20033;-38
2022/01/21 06:48:14;;;;;;;10.60;5.22;;;;;;;;;;5071433;28;20161;-38
2022/01/21 06:50:40;;;;;;;14.82;4.88;;;;;;;;;;5071341;28;20347;-38
2022/01/21 06:53:06;;;;;;;8.68;5.25;;;;;;;;;;5070891;28;20063;-37
2022/01/21 06:55:31;;;;;;;7.28;4.88;;;;;;;;;;5071368;28;20085;-38
2022/01/21 06:57:57;;;;;;;9.73;4.50;;;;;;;;;;5069690;28;20467;-38
2022/01/21 07:00:22;;;;;;;10.23;4.32;;;;;;;;;;5070811;28;20036;-38
2022/01/21 07:02:49;;;;;;;8.15;4.22;;;;;;;;;;5071017;28;20025;-37
2022/01/21 07:05:15;;;;;;;6.25;3.58;;;;;;;;;;5071177;28;20108;-38
2022/01/21 07:07:41;;;;;;;7.15;4.13;;;;;;;;;;5074906;28;20576;-38
2022/01/21 07:10:07;;;;;;;8.75;4.68;;;;;;;;;;5075145;28;20021;-38
2022/01/21 07:12:33;;;;;;;8.80;4.50;;;;;;;;;;5074959;28;20032;-38
2022/01/21 07:14:59;;;;;;;6.22;4.15;;;;;;;;;;5075163;28;20047;-38
2022/01/21 07:17:24;;;;;;;7.55;3.95;;;;;;;;;;5074663;28;20036;-38
2022/01/21 07:19:50;;;;;;;9.85;4.15;;;;;;;;;;5074883;28;20058;-38
2022/01/21 07:22:15;;;;;;;11.20;4.45;;;;;;;;;;5074906;28;20029;-38
2022/01/21 07:24:41;;;;;;;9.88;4.97;;;;;;;;;;5074441;28;20051;-37
2022/01/21 07:27:06;;;;;;;7.82;4.75;;;;;;;;;;5074532;28;20565;-37
2022/01/21 07:29:32;;;;;;;10.85;5.65;;;;;;;;;;5074617;28;20021;-38
2022/01/21 07:31:58;;;;;;;9.13;3.88;;;;;;;;;;5074784;28;20040;-37
2022/01/21 07:34:25;;;;;;;10.70;5.43;;;;;;;;;;5074574;28;20025;-37
2022/01/21 07:36:51;;;;;;;11.32;4.18;;;;;;;;;;5074252;28;20033;-37
2022/01/21 07:39:17;;;;;;;5.28;3.78;;;;;;;;;;5074363;28;20486;-38
2022/01/21 07:41:42;;;;;;;8.13;4.07;;;;;;;;;;5073927;28;20082;-37
2022/01/21 07:44:08;;;;;;;8.98;3.88;;;;;;;;;;5074196;28;20040;-38
2022/01/21 07:46:34;;;;;;;10.63;5.20;;;;;;;;;;5074249;28;20130;-37
2022/01/21 07:48:59;;;;;;;8.77;4.75;;;;;;;;;;5074299;28;20044;-38
2022/01/21 07:51:25;;;;;;;8.15;4.10;;;;;;;;;;5074142;28;20475;-37
2022/01/21 07:53:51;;;;;;;5.40;2.80;;;;;;;;;;5074295;28;20024;-38
2022/01/21 07:56:17;;;;;;;7.53;3.97;;;;;;;;;;5074238;28;20424;-38
2022/01/21 07:58:42;;;;;;;8.73;4.05;;;;;;;;;;5073858;28;20033;-40
2022/01/21 08:01:08;;;;;;;7.85;4.18;;;;;;;;;;5073768;28;20131;-37
2022/01/21 08:03:33;;;;;;;7.07;3.78;;;;;;;;;;5074079;28;20027;-38
2022/01/21 08:05:59;;;;;;;5.75;3.20;;;;;;;;;;5073860;28;20394;-37
2022/01/21 08:08:26;;;;;;;10.60;4.50;;;;;;;;;;5073797;28;20075;-37
2022/01/21 08:10:52;;;;;;;10.20;4.60;;;;;;;;;;5073935;28;20036;-37
2022/01/21 08:13:17;;;;;;;8.90;3.38;;;;;;;;;;5073612;28;20486;-37
2022/01/21 08:15:43;;;;;;;6.40;3.55;;;;;;;;;;5073945;28;20044;-37
2022/01/21 08:18:09;;;;;;;11.15;4.53;;;;;;;;;;5072917;28;20021;-37
2022/01/21 08:20:35;;;;;;;6.05;2.92;;;;;;;;;;5089079;28;20056;-39
2022/01/21 08:23:01;;;;;;;5.45;3.25;;;;;;;;;;5073883;28;20116;-37
2022/01/21 08:25:27;;;;;;;6.53;4.03;;;;;;;;;;5073458;28;20134;-37
2022/01/21 08:27:52;;;;;;;5.70;2.97;;;;;;;;;;5073479;28;20024;-38
2022/01/21 08:30:18;;;;;;;6.07;4.10;;;;;;;;;;5073750;28;20666;-38
2022/01/21 08:32:43;;;;;;;6.85;3.92;;;;;;;;;;5073387;28;20032;-38
2022/01/21 08:35:10;;;;;;;12.68;3.42;;;;;;;;;;5073355;28;20478;-37
2022/01/21 08:37:35;;;;;;;6.43;3.78;;;;;;;;;;5073267;28;20462;-38
2022/01/21 08:40:01;;;;;;;7.20;3.55;;;;;;;;;;5073167;28;20101;-38
2022/01/21 08:42:26;;;;;;;8.48;3.38;;;;;;;;;;5072916;28;20055;-38
2022/01/21 08:44:52;;;;;;;6.80;3.25;;;;;;;;;;5073407;28;20093;-38
2022/01/21 08:47:20;;;;;;;7.70;3.25;;;;;;;;;;5073076;28;20680;-38
2022/01/21 08:49:48;;;;;;;5.07;3.28;;;;;;;;;;5073243;28;20463;-38
2022/01/21 08:52:19;;;;;;;6.78;3.17;;;;;;;;;;5073025;28;20027;-38
2022/01/21 08:54:46;;;;;;;4.93;2.25;;;;;;;;;;5072876;28;20127;-37
2022/01/21 08:57:11;;;;;;;4.65;2.15;;;;;;;;;;5072967;28;20060;-38
2022/01/21 08:59:37;;;;;;;4.57;2.58;;;;;;;;;;5072653;28;20075;-38
2022/01/21 09:02:02;;;;;;;4.82;2.28;;;;;;;;;;5072861;28;20028;-38
2022/01/21 09:04:28;;;;;;;6.38;2.88;;;;;;;;;;5072967;28;20475;-38
2022/01/21 09:06:53;;;;;;;3.08;2.05;;;;;;;;;;5072756;28;20044;-38
2022/01/21 09:09:19;;;;;;;3.85;1.85;;;;;;;;;;5072647;28;20064;-38
2022/01/21 09:11:45;;;;;;;2.67;1.20;;;;;;;;;;5072631;28;20029;-43
2022/01/21 09:14:11;;;;;;;3.00;2.25;;;;;;;;;;5072387;28;20051;-38
2022/01/21 09:16:37;;;;;;;4.68;1.65;;;;;;;;;;5072409;28;20028;-37
2022/01/21 09:19:04;;;;;;;2.35;1.80;;;;;;;;;;5072436;28;20386;-38
2022/01/21 09:21:34;;;;;;;4.25;2.13;;;;;;;;;;5070907;28;20430;-37
2022/01/21 09:23:59;;;;;;;1.70;1.58;;;;;;;;;;5072647;28;20086;-38
2022/01/21 09:26:25;;;;;;;2.72;1.27;;;;;;;;;;5072192;28;20421;-38
2022/01/21 09:28:51;;;;;;;2.25;1.58;;;;;;;;;;5071315;28;20388;-38
2022/01/21 09:31:18;;;;;;;4.85;1.77;;;;;;;;;;5072276;28;20079;-37
2022/01/21 09:33:43;;;;;;;5.50;1.27;;;;;;;;;;5071973;28;20444;-38
2022/01/21 09:36:10;;;;;;;1.67;1.33;;;;;;;;;;5072421;28;20082;-38
2022/01/21 09:38:36;;;;;;;3.00;1.77;;;;;;;;;;5071934;28;20029;-38
2022/01/21 09:41:03;;;;;;;7.60;0.98;;;;;;;;;;5071736;28;20098;-38
2022/01/21 09:43:28;;;;;;;0.80;0.68;;;;;;;;;;5071793;28;20032;-37
2022/01/21 09:45:55;;;;;;;2.58;1.40;;;;;;;;;;5070663;28;20037;-37
2022/01/21 09:48:23;;;;;;;1.38;1.27;;;;;;;;;;5071957;28;20489;-38
2022/01/21 09:50:50;;;;;;;1.92;1.13;;;;;;;;;;5071723;28;20027;-37
2022/01/21 09:53:18;;;;;;;0.85;0.73;;;;;;;;;;5072089;28;20033;-37
2022/01/21 09:55:44;;;;;;;2.22;1.25;;;;;;;;;;5071886;28;20360;-37
2022/01/21 09:58:10;;;;;;;2.08;0.85;;;;;;;;;;5071629;28;20063;-37
2022/01/21 10:00:35;;;;;;;3.78;1.05;;;;;;;;;;5071544;28;20079;-38
2022/01/21 10:03:03;;;;;;;1.27;1.05;;;;;;;;;;5071909;28;20043;-37
2022/01/21 10:05:29;;;;;;;4.80;1.55;;;;;;;;;;5071576;28;20028;-37
2022/01/21 10:07:54;;;;;;;0.52;0.52;;;;;;;;;;5072012;28;20123;-38
2022/01/21 10:10:20;;;;;;;1.08;0.98;;;;;;;;;;5071533;28;20104;-37
2022/01/21 10:12:48;;;;;;;1.13;0.93;;;;;;;;;;5071422;28;20035;-37
2022/01/21 10:15:14;;;;;;;0.73;0.63;;;;;;;;;;5071318;28;20497;-37
2022/01/21 10:17:59;;;;;;;1.00;0.82;;;;;;;;;;5071709;28;20590;-37
2022/01/21 10:20:25;;;;;;;1.90;1.42;;;;;;;;;;5071258;28;20068;-38
2022/01/21 10:23:04;;;;;;;1.17;1.02;;;;;;;;;;5071483;28;20048;-37
2022/01/21 10:25:31;;;;;;;0.75;0.70;;;;;;;;;;5071292;28;20534;-39
2022/01/21 10:28:09;;;;;;;1.05;0.95;;;;;;;;;;5071679;28;20043;-38
2022/01/21 10:30:35;;;;;;;2.10;1.40;;;;;;;;;;5071445;28;20375;-38
2022/01/21 10:33:00;;;;;;;1.23;1.10;;;;;;;;;;5071445;28;20020;-37
2022/01/21 10:35:30;;;;;;;1.33;0.93;;;;;;;;;;5071537;28;20028;-38
2022/01/21 10:37:57;;;;;;;1.15;1.05;;;;;;;;;;5071561;28;20075;-37
2022/01/21 10:40:32;;;;;;;1.55;0.70;;;;;;;;;;5070945;28;20115;-37
2022/01/21 10:43:09;;;;;;;2.25;1.08;;;;;;;;;;5071111;28;20072;-37
2022/01/21 10:45:52;;;;;;;1.30;0.80;;;;;;;;;;5071466;28;20138;-37
2022/01/21 10:48:18;;;;;;;2.43;1.20;;;;;;;;;;5071183;28;20039;-43
2022/01/21 10:50:44;;;;;;;1.85;1.15;;;;;;;;;;5071000;28;20229;-38
2022/01/21 10:53:25;;;;;;;2.63;1.13;;;;;;;;;;5071341;28;20024;-37
2022/01/21 10:55:51;;;;;;;1.90;1.48;;;;;;;;;;5071372;28;20032;-37
2022/01/21 10:58:19;;;;;;;3.10;0.75;;;;;;;;;;5069818;28;20027;-37
2022/01/21 11:01:10;;;;;;;2.47;1.15;;;;;;;;;;5086448;28;20051;-38
2022/01/21 11:03:38;;;;;;;0.63;0.63;;;;;;;;;;5070839;28;20041;-38
2022/01/21 11:06:18;;;;;;;1.95;1.15;;;;;;;;;;5071002;28;20048;-38
2022/01/21 11:08:43;;;;;;;2.83;1.20;;;;;;;;;;5070888;28;20025;-37
2022/01/21 11:11:09;;;;;;;1.65;1.55;;;;;;;;;;5070906;28;20032;-37
2022/01/21 11:13:36;;;;;;;5.28;1.30;;;;;;;;;;5070776;28;20151;-38
2022/01/21 11:16:02;;;;;;;3.70;1.25;;;;;;;;;;5070936;28;20017;-37
2022/01/21 11:18:29;;;;;;;1.77;0.77;;;;;;;;;;5070791;28;20067;-39
2022/01/21 11:21:04;;;;;;;1.30;1.13;;;;;;;;;;5070806;28;20032;-38
2022/01/21 11:23:30;;;;;;;1.02;0.95;;;;;;;;;;5070891;28;20604;-38
2022/01/21 11:25:57;;;;;;;1.48;1.13;;;;;;;;;;5070962;28;20127;-38
2022/01/21 11:28:23;;;;;;;1.55;0.80;;;;;;;;;;5070768;28;20029;-38
2022/01/21 11:30:49;;;;;;;1.15;0.90;;;;;;;;;;5070788;28;20039;-38
2022/01/21 11:33:15;;;;;;;2.90;1.23;;;;;;;;;;5086100;28;20483;-37
2022/01/21 11:35:41;;;;;;;0.73;0.73;;;;;;;;;;5070629;28;20027;-38
2022/01/21 11:38:07;;;;;;;4.30;0.80;;;;;;;;;;5070725;28;20028;-38
2022/01/21 11:40:33;;;;;;;1.70;1.08;;;;;;;;;;5070463;28;20549;-38
2022/01/21 11:42:58;;;;;;;0.80;0.80;;;;;;;;;;5070464;28;20072;-38
2022/01/21 11:50:46;;;;;;;2.88;1.10;;;;;;;;;;5050875;28;20044;-37
2022/01/21 11:53:12;;;;;;;2.10;1.55;;;;;;;;;;5073802;28;20066;-38
2022/01/21 11:55:40;;;;;;;2.83;1.65;;;;;;;;;;5074058;28;20555;-38
2022/01/21 11:58:17;;;;;;;1.90;0.95;;;;;;;;;;5074039;28;20486;-38
2022/01/21 12:00:43;;;;;;;1.98;1.20;;;;;;;;;;5074110;28;20051;-37
2022/01/21 12:03:09;;;;;;;3.50;1.23;;;;;;;;;;5073917;28;20500;-37
2022/01/21 12:05:34;;;;;;;2.25;1.20;;;;;;;;;;5073860;28;20179;-38
2022/01/21 12:08:04;;;;;;;4.10;1.15;;;;;;;;;;5073939;28;20024;-38
2022/01/21 12:10:32;;;;;;;2.00;1.42;;;;;;;;;;5073789;28;20023;-38
2022/01/21 12:13:07;;;;;;;1.85;1.00;;;;;;;;;;5073798;28;20025;-38
2022/01/21 12:20:49;;;;;;;1.67;1.38;;;;;;;;;;5073465;28;20044;-38
2022/01/21 12:23:34;;;;;;;2.05;0.73;;;;;;;;;;5073885;28;20158;-38
2022/01/21 12:26:15;;;;;;;1.80;1.27;;;;;;;;;;5073217;28;20028;-38
2022/01/21 12:28:41;;;;;;;2.72;1.17;;;;;;;;;;5088988;28;20077;-38
2022/01/21 12:31:08;;;;;;;1.98;1.10;;;;;;;;;;5073746;28;20024;-41
2022/01/21 12:36:23;;;;;;;1.88;1.40;;;;;;;;;;5073680;28;20036;-37
2022/01/21 12:41:15;;;;;;;4.47;1.40;;;;;;;;;;5073000;28;20578;-38
2022/01/21 12:43:46;;;;;;;3.65;1.85;;;;;;;;;;5073184;28;20096;-38
2022/01/21 12:46:26;;;;;;;1.83;1.35;;;;;;;;;;5073165;28;20494;-37
2022/01/21 12:48:53;;;;;;;3.90;1.70;;;;;;;;;;5072975;28;20031;-40
2022/01/21 12:52:08;;;;;;;1.23;1.02;;;;;;;;;;5073427;28;20661;-38
2022/01/21 12:57:45;;;;;;;3.47;1.52;;;;;;;;;;5072975;28;20082;-38
2022/01/21 13:00:11;;;;;;;3.83;1.63;;;;;;;;;;5072685;28;20124;-37
2022/01/21 13:02:37;;;;;;;4.32;1.80;;;;;;;;;;5072545;28;20057;-38
2022/01/21 13:05:02;;;;;;;2.13;1.35;;;;;;;;;;5072841;28;20024;-38
2022/01/21 13:07:37;;;;;;;2.13;1.27;;;;;;;;;;5072633;28;20025;-38
2022/01/21 13:10:06;;;;;;;1.23;1.10;;;;;;;;;;5072646;28;20429;-37
2022/01/21 13:15:44;;;;;;;2.30;1.27;;;;;;;;;;5072772;28;20043;-37
2022/01/21 13:18:12;;;;;;;1.67;1.40;;;;;;;;;;5072505;28;20036;-38
2022/01/21 13:20:39;;;;;;;3.55;1.60;;;;;;;;;;5072244;28;20043;-38
2022/01/21 13:23:05;;;;;;;3.20;1.63;;;;;;;;;;5072672;28;20434;-37
2022/01/21 13:25:32;;;;;;;2.42;1.30;;;;;;;;;;5070976;28;20066;-38
2022/01/21 13:27:59;;;;;;;2.25;0.98;;;;;;;;;;5072353;28;20032;-38
2022/01/21 13:30:27;;;;;;;2.83;1.92;;;;;;;;;;5072126;28;20082;-38
2022/01/21 13:33:07;;;;;;;1.73;1.05;;;;;;;;;;5072144;28;20040;-38
2022/01/21 13:35:34;;;;;;;3.17;2.13;;;;;;;;;;5071999;28;20042;-38
2022/01/21 13:38:08;;;;;;;2.03;1.38;;;;;;;;;;5072171;28;20035;-38
2022/01/21 13:40:57;;;;;;;2.92;1.48;;;;;;;;;;5071967;28;20082;-38
2022/01/21 13:43:24;;;;;;;1.98;1.27;;;;;;;;;;5072152;28;20047;-41
2022/01/21 13:45:59;;;;;;;1.33;1.00;;;;;;;;;;5071794;28;20120;-38
2022/01/21 13:48:25;;;;;;;4.25;1.83;;;;;;;;;;5071996;28;20234;-38
2022/01/21 13:50:51;;;;;;;4.00;1.73;;;;;;;;;;5071835;28;20471;-38
2022/01/21 13:53:18;;;;;;;2.00;1.08;;;;;;;;;;5087571;28;20040;-38
2022/01/21 13:55:46;;;;;;;2.65;1.17;;;;;;;;;;5071784;28;20021;-37
2022/01/21 13:58:13;;;;;;;1.75;1.38;;;;;;;;;;5071766;28;20032;-37
2022/01/21 14:00:42;;;;;;;1.80;1.00;;;;;;;;;;5071559;28;20036;-37
2022/01/21 14:03:18;;;;;;;2.25;1.35;;;;;;;;;;5071617;28;20032;-37
2022/01/21 14:05:52;;;;;;;2.30;1.40;;;;;;;;;;5071611;28;20115;-37
2022/01/21 14:08:27;;;;;;;3.25;1.73;;;;;;;;;;5071622;28;20039;-38
2022/01/21 14:10:55;;;;;;;2.67;1.60;;;;;;;;;;5071868;28;20035;-37
2022/01/21 14:13:21;;;;;;;4.72;1.60;;;;;;;;;;5071424;28;20028;-37
2022/01/21 14:15:46;;;;;;;2.55;1.35;;;;;;;;;;5071285;28;20060;-38
2022/01/21 14:18:12;;;;;;;4.40;1.58;;;;;;;;;;5071545;28;20097;-37
2022/01/21 14:20:39;;;;;;;3.50;1.42;;;;;;;;;;5071574;28;20037;-38
2022/01/21 14:23:05;;;;;;;9.80;1.60;;;;;;;;;;5071416;28;20055;-38
2022/01/21 14:25:31;;;;;;;2.05;1.65;;;;;;;;;;5071392;28;20105;-37
2022/01/21 14:27:57;;;;;;;3.33;1.63;;;;;;;;;;5071454;28;20024;-37
2022/01/21 14:30:23;;;;;;;3.45;2.47;;;;;;;;;;5071385;28;20032;-38
2022/01/21 14:32:51;;;;;;;1.60;1.17;;;;;;;;;;5071195;28;20024;-38
2022/01/21 14:35:30;;;;;;;3.80;1.67;;;;;;;;;;5071578;28;20033;-38
2022/01/21 14:38:01;;;;;;;2.90;1.33;;;;;;;;;;5071283;28;20024;-38
2022/01/21 14:40:30;;;;;;;6.88;2.28;;;;;;;;;;5071213;28;20490;-38
2022/01/21 14:43:11;;;;;;;2.90;1.58;;;;;;;;;;5070945;28;20663;-38
2022/01/21 14:45:38;;;;;;;4.15;2.00;;;;;;;;;;5071297;28;20506;-38
2022/01/21 14:48:18;;;;;;;2.60;1.30;;;;;;;;;;5071186;28;20031;-37
2022/01/21 14:50:49;;;;;;;4.35;1.38;;;;;;;;;;5071091;28;20039;-38
2022/01/21 14:53:15;;;;;;;2.28;1.10;;;;;;;;;;5071421;28;20131;-38
2022/01/21 14:55:44;;;;;;;4.20;1.35;;;;;;;;;;5071063;28;20025;-38
2022/01/21 14:58:16;;;;;;;1.80;1.23;;;;;;;;;;5071057;28;20033;-37
2022/01/21 15:00:42;;;;;;;3.83;2.15;;;;;;;;;;5071129;28;20037;-38
2022/01/21 15:03:09;;;;;;;2.83;1.42;;;;;;;;;;5071192;28;20462;-38
2022/01/21 15:05:35;;;;;;;1.85;1.38;;;;;;;;;;5070986;28;20082;-37
2022/01/21 15:08:01;;;;;;;5.82;1.85;;;;;;;;;;5071276;28;20455;-38
2022/01/21 15:16:06;;;;;;;2.22;1.50;;;;;;;;;;5070982;28;20033;-38
2022/01/21 15:18:32;;;;;;;1.80;1.13;;;;;;;;;;5070731;28;20068;-37
2022/01/21 15:20:57;;;;;;;3.47;1.70;;;;;;;;;;5070890;28;20076;-37
2022/01/21 15:23:23;;;;;;;3.90;1.98;;;;;;;;;;5070780;28;20017;-38
2022/01/21 15:25:49;;;;;;;3.53;1.67;;;;;;;;;;5070738;28;20481;-38
2022/01/21 15:28:15;;;;;;;3.95;1.73;;;;;;;;;;5074005;28;20099;-38
2022/01/21 15:30:42;;;;;;;2.75;1.90;;;;;;;;;;5074471;28;20073;-38
2022/01/21 15:33:08;;;;;;;3.85;1.70;;;;;;;;;;5074812;28;20020;-38
2022/01/21 15:35:34;;;;;;;3.65;1.67;;;;;;;;;;5074692;28;20032;-38
2022/01/21 15:38:00;;;;;;;4.22;1.83;;;;;;;;;;5074515;28;20368;-38
2022/01/21 15:40:25;;;;;;;2.60;1.58;;;;;;;;;;5074368;28;20121;-38
2022/01/21 15:42:51;;;;;;;2.97;1.92;;;;;;;;;;5074056;28;20098;-37
2022/01/21 15:45:17;;;;;;;2.85;1.85;;;;;;;;;;5074321;28;20589;-38
2022/01/21 15:47:44;;;;;;;4.85;2.13;;;;;;;;;;5074140;28;20029;-37
2022/01/21 15:50:12;;;;;;;2.15;1.02;;;;;;;;;;5074300;28;20043;-37
2022/01/21 15:52:38;;;;;;;6.70;2.10;;;;;;;;;;5074105;28;20375;-38
2022/01/21 15:55:04;;;;;;;3.55;1.67;;;;;;;;;;5074172;28;20497;-37
2022/01/21 15:57:30;;;;;;;4.50;2.28;;;;;;;;;;5074134;28;20027;-38